createdAt,value
2018-05-31T00:00:19.844Z,1003.72
2018-05-31T00:01:19.734Z,1003.71
2018-05-31T00:02:19.720Z,1003.73
2018-05-31T00:03:19.790Z,1003.71
2018-05-31T00:04:19.823Z,1003.70
2018-05-31T00:05:19.904Z,1003.69
2018-05-31T00:06:19.920Z,1003.71
2018-05-31T00:07:19.819Z,1003.69
2018-05-31T00:08:19.720Z,1003.72
2018-05-31T00:09:19.737Z,1003.72
2018-05-31T00:10:19.741Z,1003.71
2018-05-31T00:11:19.746Z,1003.73
2018-05-31T00:12:19.828Z,1003.74
2018-05-31T00:13:20.797Z,1003.73
2018-05-31T00:14:19.850Z,1003.73
2018-05-31T00:15:19.785Z,1003.72
2018-05-31T00:16:19.790Z,1003.72
2018-05-31T00:17:19.860Z,1003.71
2018-05-31T00:18:19.804Z,1003.67
2018-05-31T00:19:19.924Z,1003.68
2018-05-31T00:20:19.834Z,1003.68
2018-05-31T00:21:19.843Z,1003.68
2018-05-31T00:22:19.806Z,1003.69
2018-05-31T00:23:19.809Z,1003.67
2018-05-31T00:24:19.802Z,1003.65
2018-05-31T00:25:19.799Z,1003.69
2018-05-31T00:26:19.750Z,1003.68
2018-05-31T00:27:19.832Z,1003.68
2018-05-31T00:28:19.810Z,1003.73
2018-05-31T00:29:19.798Z,1003.71
2018-05-31T00:30:19.873Z,1003.72
2018-05-31T00:31:19.815Z,1003.72
2018-05-31T00:32:19.795Z,1003.75
2018-05-31T00:33:19.894Z,1003.78
2018-05-31T00:34:19.835Z,1003.76
2018-05-31T00:35:19.848Z,1003.75
2018-05-31T00:36:19.742Z,1003.74
2018-05-31T00:37:19.869Z,1003.71
2018-05-31T00:38:19.860Z,1003.70
2018-05-31T00:39:19.874Z,1003.72
2018-05-31T00:40:19.762Z,1003.73
2018-05-31T00:41:19.840Z,1003.72
2018-05-31T00:42:19.880Z,1003.72
2018-05-31T00:43:19.785Z,1003.75
2018-05-31T00:44:19.880Z,1003.74
2018-05-31T00:45:19.770Z,1003.76
2018-05-31T00:46:19.843Z,1003.74
2018-05-31T00:47:19.815Z,1003.75
2018-05-31T00:48:19.876Z,1003.71
2018-05-31T00:49:19.847Z,1003.70
2018-05-31T00:50:19.767Z,1003.72
2018-05-31T00:51:19.892Z,1003.68
2018-05-31T00:52:19.880Z,1003.70
2018-05-31T00:53:19.848Z,1003.68
2018-05-31T00:54:19.831Z,1003.70
2018-05-31T00:55:19.849Z,1003.77
2018-05-31T00:56:19.852Z,1003.74
2018-05-31T00:57:19.815Z,1003.79
2018-05-31T00:58:19.796Z,1003.79
2018-05-31T00:59:19.890Z,1003.77
2018-05-31T01:00:19.757Z,1003.75
2018-05-31T01:01:19.796Z,1003.78
2018-05-31T01:02:19.893Z,1003.76
2018-05-31T01:03:19.782Z,1003.77
2018-05-31T01:04:19.885Z,1003.79
2018-05-31T01:05:19.861Z,1003.81
2018-05-31T01:06:19.797Z,1003.84
2018-05-31T01:07:19.880Z,1003.83
2018-05-31T01:08:19.821Z,1003.88
2018-05-31T01:09:19.801Z,1003.87
2018-05-31T01:10:19.881Z,1003.90
2018-05-31T01:11:19.843Z,1003.91
2018-05-31T01:12:19.890Z,1003.95
2018-05-31T01:13:19.883Z,1004.00
2018-05-31T01:14:19.784Z,1003.96
2018-05-31T01:15:19.903Z,1003.99
2018-05-31T01:16:19.870Z,1004.00
2018-05-31T01:17:19.790Z,1004.04
2018-05-31T01:18:19.849Z,1004.01
2018-05-31T01:19:19.824Z,1004.04
2018-05-31T01:20:19.831Z,1004.05
2018-05-31T01:21:19.770Z,1004.06
2018-05-31T01:22:19.774Z,1004.06
2018-05-31T01:23:19.808Z,1004.05
2018-05-31T01:24:19.852Z,1004.06
2018-05-31T01:25:19.811Z,1004.02
2018-05-31T01:26:19.846Z,1004.04
2018-05-31T01:27:19.869Z,1004.05
2018-05-31T01:28:19.849Z,1004.05
2018-05-31T01:29:19.880Z,1004.01
2018-05-31T01:30:19.904Z,1004.06
2018-05-31T01:31:19.794Z,1003.98
2018-05-31T01:32:19.915Z,1003.99
2018-05-31T01:33:19.904Z,1004.02
2018-05-31T01:34:19.877Z,1004.00
2018-05-31T01:35:19.895Z,1004.00
2018-05-31T01:36:19.908Z,1004.02
2018-05-31T01:37:19.902Z,1004.00
2018-05-31T01:38:19.914Z,1003.99
2018-05-31T01:39:19.859Z,1003.97
2018-05-31T01:40:19.754Z,1003.97
2018-05-31T01:41:19.775Z,1003.96
2018-05-31T01:42:19.777Z,1003.93
2018-05-31T01:43:19.783Z,1003.88
2018-05-31T01:44:19.875Z,1003.91
2018-05-31T01:45:19.781Z,1003.91
2018-05-31T01:46:19.860Z,1003.92
2018-05-31T01:47:19.826Z,1003.90
2018-05-31T01:48:19.868Z,1003.90
2018-05-31T01:49:19.778Z,1003.91
2018-05-31T01:50:19.753Z,1003.90
2018-05-31T01:51:19.703Z,1003.90
2018-05-31T01:52:19.729Z,1003.91
2018-05-31T01:53:19.765Z,1003.88
2018-05-31T01:54:19.758Z,1003.89
2018-05-31T01:55:19.710Z,1003.90
2018-05-31T01:56:19.715Z,1003.91
2018-05-31T01:57:19.740Z,1003.94
2018-05-31T01:58:19.713Z,1003.90
2018-05-31T01:59:19.732Z,1003.93
2018-05-31T02:00:19.975Z,1003.91
2018-05-31T02:01:19.888Z,1003.94
2018-05-31T02:02:19.832Z,1003.90
2018-05-31T02:03:19.892Z,1003.88
2018-05-31T02:04:19.815Z,1003.87
2018-05-31T02:05:19.815Z,1003.88
2018-05-31T02:06:19.896Z,1003.89
2018-05-31T02:07:19.821Z,1003.90
2018-05-31T02:08:19.893Z,1003.86
2018-05-31T02:09:19.819Z,1003.90
2018-05-31T02:10:19.856Z,1003.88
2018-05-31T02:11:19.801Z,1003.90
2018-05-31T02:12:19.891Z,1003.87
2018-05-31T02:13:19.836Z,1003.88
2018-05-31T02:14:19.797Z,1003.89
2018-05-31T02:15:19.886Z,1003.89
2018-05-31T02:16:19.897Z,1003.88
2018-05-31T02:17:19.808Z,1003.92
2018-05-31T02:18:19.806Z,1003.89
2018-05-31T02:19:19.803Z,1003.90
2018-05-31T02:20:19.842Z,1003.92
2018-05-31T02:21:19.920Z,1003.90
2018-05-31T02:22:19.910Z,1003.91
2018-05-31T02:23:19.968Z,1003.89
2018-05-31T02:24:19.912Z,1003.88
2018-05-31T02:25:19.916Z,1003.91
2018-05-31T02:26:19.916Z,1003.93
2018-05-31T02:27:19.919Z,1003.94
2018-05-31T02:28:19.844Z,1003.91
2018-05-31T02:29:19.922Z,1003.96
2018-05-31T02:30:19.847Z,1003.95
2018-05-31T02:31:19.892Z,1003.94
2018-05-31T02:32:19.915Z,1003.93
2018-05-31T02:33:19.947Z,1003.93
2018-05-31T02:34:19.919Z,1003.91
2018-05-31T02:35:19.893Z,1003.93
2018-05-31T02:36:19.824Z,1003.92
2018-05-31T02:37:19.919Z,1003.94
2018-05-31T02:38:19.884Z,1003.91
2018-05-31T02:39:19.951Z,1003.93
2018-05-31T02:40:19.947Z,1003.95
2018-05-31T02:41:19.922Z,1003.95
2018-05-31T02:42:19.886Z,1003.94
2018-05-31T02:43:19.881Z,1003.94
2018-05-31T02:44:19.930Z,1003.93
2018-05-31T02:45:19.903Z,1003.96
2018-05-31T02:46:19.830Z,1003.96
2018-05-31T02:47:19.886Z,1003.94
2018-05-31T02:48:19.893Z,1003.89
2018-05-31T02:49:19.944Z,1003.86
2018-05-31T02:50:19.912Z,1003.89
2018-05-31T02:51:19.813Z,1003.81
2018-05-31T02:52:19.926Z,1003.85
2018-05-31T02:53:19.934Z,1003.86
2018-05-31T02:54:19.859Z,1003.85
2018-05-31T02:55:19.861Z,1003.82
2018-05-31T02:56:19.865Z,1003.83
2018-05-31T02:57:19.864Z,1003.81
2018-05-31T02:58:19.940Z,1003.81
2018-05-31T02:59:19.938Z,1003.81
2018-05-31T03:00:19.949Z,1003.81
2018-05-31T03:01:19.896Z,1003.78
2018-05-31T03:02:19.917Z,1003.83
2018-05-31T03:03:19.855Z,1003.81
2018-05-31T03:04:19.874Z,1003.79
2018-05-31T03:05:19.943Z,1003.78
2018-05-31T03:06:19.899Z,1003.78
2018-05-31T03:07:19.877Z,1003.78
2018-05-31T03:08:19.863Z,1003.77
2018-05-31T03:09:19.939Z,1003.77
2018-05-31T03:10:19.923Z,1003.78
2018-05-31T03:11:19.849Z,1003.77
2018-05-31T03:12:19.841Z,1003.77
2018-05-31T03:13:19.904Z,1003.74
2018-05-31T03:14:19.899Z,1003.77
2018-05-31T03:15:19.848Z,1003.78
2018-05-31T03:16:19.899Z,1003.77
2018-05-31T03:17:19.938Z,1003.76
2018-05-31T03:18:19.820Z,1003.77
2018-05-31T03:19:19.882Z,1003.78
2018-05-31T03:20:19.835Z,1003.74
2018-05-31T03:21:19.882Z,1003.77
2018-05-31T03:22:19.954Z,1003.75
2018-05-31T03:23:19.884Z,1003.75
2018-05-31T03:24:19.954Z,1003.73
2018-05-31T03:25:19.882Z,1003.73
2018-05-31T03:26:19.959Z,1003.71
2018-05-31T03:27:19.895Z,1003.68
2018-05-31T03:28:19.887Z,1003.68
2018-05-31T03:29:19.958Z,1003.69
2018-05-31T03:30:19.960Z,1003.69
2018-05-31T03:31:19.913Z,1003.71
2018-05-31T03:32:19.922Z,1003.76
2018-05-31T03:33:19.865Z,1003.77
2018-05-31T03:34:19.881Z,1003.78
2018-05-31T03:35:19.874Z,1003.79
2018-05-31T03:36:19.960Z,1003.75
2018-05-31T03:37:19.956Z,1003.73
2018-05-31T03:38:19.992Z,1003.73
2018-05-31T03:39:19.976Z,1003.70
2018-05-31T03:40:19.959Z,1003.71
2018-05-31T03:41:19.896Z,1003.66
2018-05-31T03:42:19.927Z,1003.68
2018-05-31T03:43:19.964Z,1003.68
2018-05-31T03:44:19.967Z,1003.69
2018-05-31T03:45:19.966Z,1003.75
2018-05-31T03:46:19.922Z,1003.76
2018-05-31T03:47:19.911Z,1003.75
2018-05-31T03:48:19.903Z,1003.78
2018-05-31T03:49:19.901Z,1003.79
2018-05-31T03:50:19.902Z,1003.77
2018-05-31T03:51:19.947Z,1003.77
2018-05-31T03:52:19.998Z,1003.77
2018-05-31T03:53:19.934Z,1003.81
2018-05-31T03:54:19.945Z,1003.79
2018-05-31T03:55:19.940Z,1003.83
2018-05-31T03:56:19.954Z,1003.84
2018-05-31T03:57:19.874Z,1003.85
2018-05-31T03:58:20.004Z,1003.85
2018-05-31T03:59:19.893Z,1003.81
2018-05-31T04:00:19.941Z,1003.82
2018-05-31T04:01:19.974Z,1003.80
2018-05-31T04:02:19.910Z,1003.82
2018-05-31T04:03:19.978Z,1003.81
2018-05-31T04:04:19.907Z,1003.80
2018-05-31T04:05:19.911Z,1003.80
2018-05-31T04:06:19.941Z,1003.80
2018-05-31T04:07:19.909Z,1003.82
2018-05-31T04:08:19.984Z,1003.83
2018-05-31T04:09:19.909Z,1003.84
2018-05-31T04:10:19.984Z,1003.82
2018-05-31T04:11:19.996Z,1003.80
2018-05-31T04:12:19.923Z,1003.83
2018-05-31T04:13:19.952Z,1003.80
2018-05-31T04:14:20.013Z,1003.84
2018-05-31T04:15:20.009Z,1003.84
2018-05-31T04:16:19.910Z,1003.85
2018-05-31T04:17:20.021Z,1003.88
2018-05-31T04:18:19.968Z,1003.88
2018-05-31T04:19:19.910Z,1003.90
2018-05-31T04:20:19.953Z,1003.88
2018-05-31T04:21:19.951Z,1003.89
2018-05-31T04:22:20.030Z,1003.87
2018-05-31T04:23:20.024Z,1003.85
2018-05-31T04:24:19.995Z,1003.87
2018-05-31T04:25:19.954Z,1003.87
2018-05-31T04:26:19.956Z,1003.90
2018-05-31T04:27:20.007Z,1003.92
2018-05-31T04:28:19.911Z,1003.90
2018-05-31T04:29:20.019Z,1003.91
2018-05-31T04:30:20.072Z,1003.95
2018-05-31T04:31:19.985Z,1003.96
2018-05-31T04:32:19.867Z,1003.95
2018-05-31T04:33:19.930Z,1003.97
2018-05-31T04:34:19.986Z,1003.95
2018-05-31T04:35:19.957Z,1003.97
2018-05-31T04:36:19.990Z,1003.99
2018-05-31T04:37:19.929Z,1003.98
2018-05-31T04:38:19.978Z,1003.98
2018-05-31T04:39:19.975Z,1003.97
2018-05-31T04:40:19.981Z,1003.97
2018-05-31T04:41:20.002Z,1003.98
2018-05-31T04:42:19.936Z,1003.98
2018-05-31T04:43:20.008Z,1003.98
2018-05-31T04:44:20.005Z,1003.96
2018-05-31T04:45:20.006Z,1004.00
2018-05-31T04:46:19.895Z,1004.02
2018-05-31T04:47:20.006Z,1004.00
2018-05-31T04:48:19.964Z,1004.00
2018-05-31T04:49:20.011Z,1004.02
2018-05-31T04:50:19.943Z,1004.01
2018-05-31T04:51:19.942Z,1004.01
2018-05-31T04:52:20.013Z,1004.01
2018-05-31T04:53:20.028Z,1004.02
2018-05-31T04:54:19.945Z,1004.08
2018-05-31T04:55:20.014Z,1004.05
2018-05-31T04:56:19.944Z,1004.06
2018-05-31T04:57:19.947Z,1004.08
2018-05-31T04:58:20.013Z,1004.08
2018-05-31T04:59:20.012Z,1004.10
2018-05-31T05:00:19.948Z,1004.14
2018-05-31T05:01:19.918Z,1004.14
2018-05-31T05:02:20.017Z,1004.16
2018-05-31T05:03:19.982Z,1004.11
2018-05-31T05:04:19.937Z,1004.12
2018-05-31T05:05:20.043Z,1004.13
2018-05-31T05:06:19.994Z,1004.12
2018-05-31T05:07:19.987Z,1004.11
2018-05-31T05:08:20.054Z,1004.10
2018-05-31T05:09:19.940Z,1004.08
2018-05-31T05:10:19.998Z,1004.09
2018-05-31T05:11:20.054Z,1004.11
2018-05-31T05:12:20.058Z,1004.09
2018-05-31T05:13:20.025Z,1004.07
2018-05-31T05:14:20.052Z,1004.08
2018-05-31T05:15:19.985Z,1004.08
2018-05-31T05:16:19.991Z,1004.04
2018-05-31T05:17:19.929Z,1004.04
2018-05-31T05:18:20.050Z,1004.05
2018-05-31T05:19:20.056Z,1004.09
2018-05-31T05:20:19.951Z,1004.04
2018-05-31T05:21:19.965Z,1004.07
2018-05-31T05:22:20.025Z,1004.06
2018-05-31T05:23:19.948Z,1004.02
2018-05-31T05:24:20.073Z,1004.06
2018-05-31T05:25:19.965Z,1004.03
2018-05-31T05:26:20.056Z,1003.99
2018-05-31T05:27:20.057Z,1003.95
2018-05-31T05:28:19.973Z,1003.97
2018-05-31T05:29:19.989Z,1003.92
2018-05-31T05:30:19.929Z,1003.96
2018-05-31T05:31:19.966Z,1003.98
2018-05-31T05:32:20.030Z,1003.96
2018-05-31T05:33:19.968Z,1003.93
2018-05-31T05:34:19.969Z,1003.96
2018-05-31T05:35:20.043Z,1003.98
2018-05-31T05:36:20.039Z,1003.92
2018-05-31T05:37:19.968Z,1003.96
2018-05-31T05:38:19.920Z,1003.92
2018-05-31T05:39:20.060Z,1003.92
2018-05-31T05:40:20.005Z,1003.94
2018-05-31T05:41:20.080Z,1003.93
2018-05-31T05:42:20.046Z,1003.93
2018-05-31T05:43:20.038Z,1003.94
2018-05-31T05:44:20.023Z,1003.92
2018-05-31T05:45:20.066Z,1003.96
2018-05-31T05:46:20.062Z,1003.93
2018-05-31T05:47:20.062Z,1003.92
2018-05-31T05:48:20.023Z,1003.91
2018-05-31T05:49:19.973Z,1003.90
2018-05-31T05:50:20.074Z,1003.91
2018-05-31T05:51:20.028Z,1003.93
2018-05-31T05:52:19.953Z,1003.93
2018-05-31T05:53:20.025Z,1003.89
2018-05-31T05:54:20.025Z,1003.90
2018-05-31T05:55:19.968Z,1003.88
2018-05-31T05:56:20.059Z,1003.94
2018-05-31T05:57:20.089Z,1003.93
2018-05-31T05:58:20.049Z,1003.92
2018-05-31T05:59:20.011Z,1003.95
2018-05-31T06:00:20.051Z,1003.99
2018-05-31T06:01:20.080Z,1003.98
2018-05-31T06:02:20.073Z,1004.01
2018-05-31T06:03:20.096Z,1004.04
2018-05-31T06:04:20.094Z,1004.06
2018-05-31T06:05:19.959Z,1004.04
2018-05-31T06:06:20.023Z,1004.04
2018-05-31T06:07:20.055Z,1004.03
2018-05-31T06:08:20.042Z,1004.04
2018-05-31T06:09:20.085Z,1004.02
2018-05-31T06:10:20.004Z,1004.06
2018-05-31T06:11:19.991Z,1004.04
2018-05-31T06:12:19.948Z,1004.03
2018-05-31T06:13:19.961Z,1004.03
2018-05-31T06:14:20.072Z,1004.05
2018-05-31T06:15:19.994Z,1004.05
2018-05-31T06:16:20.062Z,1004.06
2018-05-31T06:17:20.000Z,1004.10
2018-05-31T06:18:20.003Z,1004.07
2018-05-31T06:19:20.070Z,1004.06
2018-05-31T06:20:20.084Z,1004.06
2018-05-31T06:21:20.102Z,1004.03
2018-05-31T06:22:20.042Z,1004.03
2018-05-31T06:23:19.988Z,1004.05
2018-05-31T06:24:19.973Z,1004.02
2018-05-31T06:25:20.107Z,1004.03
2018-05-31T06:26:20.132Z,1004.03
2018-05-31T06:27:20.072Z,1004.06
2018-05-31T06:28:19.973Z,1004.05
2018-05-31T06:29:20.079Z,1004.02
2018-05-31T06:30:20.095Z,1004.05
2018-05-31T06:31:19.967Z,1004.02
2018-05-31T06:32:20.030Z,1004.03
2018-05-31T06:33:20.011Z,1004.05
2018-05-31T06:34:20.023Z,1004.08
2018-05-31T06:35:20.078Z,1004.04
2018-05-31T06:36:20.012Z,1004.07
2018-05-31T06:37:20.083Z,1004.07
2018-05-31T06:38:20.010Z,1004.12
2018-05-31T06:39:20.009Z,1004.13
2018-05-31T06:40:20.082Z,1004.12
2018-05-31T06:41:20.018Z,1004.16
2018-05-31T06:42:20.083Z,1004.17
2018-05-31T06:43:20.024Z,1004.15
2018-05-31T06:44:20.084Z,1004.14
2018-05-31T06:45:20.013Z,1004.12
2018-05-31T06:46:20.087Z,1004.12
2018-05-31T06:47:20.014Z,1004.15
2018-05-31T06:48:20.085Z,1004.12
2018-05-31T06:49:20.085Z,1004.08
2018-05-31T06:50:20.018Z,1004.09
2018-05-31T06:51:20.086Z,1004.07
2018-05-31T06:52:20.073Z,1004.05
2018-05-31T06:53:20.064Z,1004.10
2018-05-31T06:54:20.195Z,1004.09
2018-05-31T06:55:20.085Z,1004.06
2018-05-31T06:56:20.089Z,1004.04
2018-05-31T06:57:20.154Z,1004.08
2018-05-31T06:58:20.110Z,1004.07
2018-05-31T06:59:20.129Z,1004.06
2018-05-31T07:00:20.131Z,1004.06
2018-05-31T07:01:20.119Z,1004.06
2018-05-31T07:02:20.097Z,1004.07
2018-05-31T07:03:20.135Z,1004.09
2018-05-31T07:04:20.064Z,1004.10
2018-05-31T07:05:20.020Z,1004.12
2018-05-31T07:06:20.125Z,1004.09
2018-05-31T07:07:20.096Z,1004.14
2018-05-31T07:08:20.064Z,1004.09
2018-05-31T07:09:20.063Z,1004.11
2018-05-31T07:10:20.136Z,1004.11
2018-05-31T07:11:20.122Z,1004.15
2018-05-31T07:12:20.103Z,1004.14
2018-05-31T07:13:20.159Z,1004.13
2018-05-31T07:14:20.012Z,1004.15
2018-05-31T07:15:20.038Z,1004.13
2018-05-31T07:16:20.078Z,1004.13
2018-05-31T07:17:20.102Z,1004.08
2018-05-31T07:18:20.104Z,1004.06
2018-05-31T07:19:20.131Z,1004.06
2018-05-31T07:20:20.145Z,1004.06
2018-05-31T07:21:20.113Z,1004.07
2018-05-31T07:22:20.111Z,1004.12
2018-05-31T07:23:20.039Z,1004.09
2018-05-31T07:24:20.115Z,1004.08
2018-05-31T07:25:20.112Z,1004.05
2018-05-31T07:26:20.041Z,1004.07
2018-05-31T07:27:20.130Z,1004.04
2018-05-31T07:28:20.116Z,1004.04
2018-05-31T07:29:20.044Z,1004.06
2018-05-31T07:30:20.116Z,1004.04
2018-05-31T07:31:20.019Z,1004.03
2018-05-31T07:32:20.056Z,1004.04
2018-05-31T07:33:19.986Z,1004.00
2018-05-31T07:34:20.055Z,1004.03
2018-05-31T07:35:20.016Z,1004.08
2018-05-31T07:36:20.081Z,1004.11
2018-05-31T07:37:20.011Z,1004.11
2018-05-31T07:38:20.093Z,1004.12
2018-05-31T07:39:20.013Z,1004.14
2018-05-31T07:40:20.049Z,1004.18
2018-05-31T07:41:20.056Z,1004.13
2018-05-31T07:42:20.089Z,1004.13
2018-05-31T07:43:20.101Z,1004.12
2018-05-31T07:44:20.189Z,1004.12
2018-05-31T07:45:20.153Z,1004.11
2018-05-31T07:46:20.183Z,1004.12
2018-05-31T07:47:20.127Z,1004.14
2018-05-31T07:48:20.092Z,1004.14
2018-05-31T07:49:20.096Z,1004.14
2018-05-31T07:50:20.127Z,1004.15
2018-05-31T07:51:20.097Z,1004.13
2018-05-31T07:52:20.123Z,1004.13
2018-05-31T07:53:20.070Z,1004.10
2018-05-31T07:54:20.165Z,1004.09
2018-05-31T07:55:20.050Z,1004.09
2018-05-31T07:56:20.095Z,1004.04
2018-05-31T07:57:20.151Z,1004.07
2018-05-31T07:58:20.107Z,1004.06
2018-05-31T07:59:20.145Z,1004.05
2018-05-31T08:00:20.048Z,1004.09
2018-05-31T08:01:20.155Z,1004.08
2018-05-31T08:02:20.096Z,1004.09
2018-05-31T08:03:20.099Z,1004.09
2018-05-31T08:04:20.125Z,1004.11
2018-05-31T08:05:20.017Z,1004.11
2018-05-31T08:06:20.014Z,1004.11
2018-05-31T08:07:20.126Z,1004.13
2018-05-31T08:08:20.087Z,1004.11
2018-05-31T08:09:20.019Z,1004.11
2018-05-31T08:10:20.131Z,1004.11
2018-05-31T08:11:20.166Z,1004.17
2018-05-31T08:12:20.084Z,1004.14
2018-05-31T08:13:20.171Z,1004.10
2018-05-31T08:14:20.100Z,1004.13
2018-05-31T08:15:20.067Z,1004.15
2018-05-31T08:16:20.106Z,1004.12
2018-05-31T08:17:20.099Z,1004.13
2018-05-31T08:18:20.069Z,1004.14
2018-05-31T08:19:20.138Z,1004.12
2018-05-31T08:20:20.142Z,1004.12
2018-05-31T08:21:20.086Z,1004.14
2018-05-31T08:22:20.077Z,1004.15
2018-05-31T08:23:20.081Z,1004.17
2018-05-31T08:24:20.148Z,1004.17
2018-05-31T08:25:20.151Z,1004.16
2018-05-31T08:26:20.147Z,1004.19
2018-05-31T08:27:20.083Z,1004.19
2018-05-31T08:28:20.090Z,1004.18
2018-05-31T08:29:20.086Z,1004.14
2018-05-31T08:30:20.088Z,1004.15
2018-05-31T08:31:20.135Z,1004.12
2018-05-31T08:32:20.153Z,1004.06
2018-05-31T08:33:20.092Z,1004.08
2018-05-31T08:34:20.186Z,1004.06
2018-05-31T08:35:20.159Z,1004.10
2018-05-31T08:36:20.084Z,1004.08
2018-05-31T08:37:20.158Z,1004.05
2018-05-31T08:38:20.098Z,1004.08
2018-05-31T08:39:20.158Z,1004.07
2018-05-31T08:40:20.094Z,1004.09
2018-05-31T08:41:20.158Z,1004.08
2018-05-31T08:42:20.066Z,1004.11
2018-05-31T08:43:20.060Z,1004.06
2018-05-31T08:44:20.106Z,1004.03
2018-05-31T08:45:20.016Z,1004.07
2018-05-31T08:46:20.022Z,1004.03
2018-05-31T08:47:20.063Z,1004.04
2018-05-31T08:48:20.063Z,1004.04
2018-05-31T08:49:20.113Z,1004.05
2018-05-31T08:50:20.179Z,1004.02
2018-05-31T08:51:20.115Z,1003.95
2018-05-31T08:52:20.165Z,1003.97
2018-05-31T08:53:20.186Z,1003.97
2018-05-31T08:54:20.128Z,1003.99
2018-05-31T08:55:20.144Z,1003.95
2018-05-31T08:56:20.185Z,1003.95
2018-05-31T08:57:20.159Z,1003.94
2018-05-31T08:58:20.200Z,1003.99
2018-05-31T08:59:20.129Z,1003.94
2018-05-31T09:00:20.153Z,1003.92
2018-05-31T09:01:20.075Z,1003.95
2018-05-31T09:02:20.132Z,1003.97
2018-05-31T09:03:20.071Z,1003.94
2018-05-31T09:04:20.138Z,1003.95
2018-05-31T09:05:20.150Z,1003.97
2018-05-31T09:06:20.213Z,1003.98
2018-05-31T09:07:20.136Z,1003.98
2018-05-31T09:08:20.010Z,1003.93
2018-05-31T09:09:20.146Z,1003.90
2018-05-31T09:10:20.155Z,1003.90
2018-05-31T09:11:20.151Z,1003.91
2018-05-31T09:12:20.153Z,1003.91
2018-05-31T09:13:20.176Z,1003.91
2018-05-31T09:14:20.117Z,1003.83
2018-05-31T09:15:20.211Z,1003.91
2018-05-31T09:16:20.158Z,1003.89
2018-05-31T09:17:20.214Z,1003.91
2018-05-31T09:18:20.083Z,1003.90
2018-05-31T09:19:20.212Z,1003.89
2018-05-31T09:20:20.219Z,1003.88
2018-05-31T09:21:20.091Z,1003.87
2018-05-31T09:22:20.182Z,1003.88
2018-05-31T09:23:20.116Z,1003.87
2018-05-31T09:24:20.182Z,1003.92
2018-05-31T09:25:20.173Z,1003.85
2018-05-31T09:26:20.188Z,1003.86
2018-05-31T09:27:20.125Z,1003.85
2018-05-31T09:28:20.187Z,1003.87
2018-05-31T09:29:20.126Z,1003.84
2018-05-31T09:30:20.195Z,1003.89
2018-05-31T09:31:20.194Z,1003.84
2018-05-31T09:32:20.122Z,1003.87
2018-05-31T09:33:20.197Z,1003.85
2018-05-31T09:34:20.195Z,1003.83
2018-05-31T09:35:20.125Z,1003.85
2018-05-31T09:36:20.215Z,1003.81
2018-05-31T09:37:20.197Z,1003.81
2018-05-31T09:38:20.130Z,1003.83
2018-05-31T09:39:20.194Z,1003.83
2018-05-31T09:40:20.127Z,1003.81
2018-05-31T09:41:20.132Z,1003.87
2018-05-31T09:42:20.238Z,1003.83
2018-05-31T09:43:20.118Z,1003.84
2018-05-31T09:44:20.239Z,1003.86
2018-05-31T09:45:20.236Z,1003.86
2018-05-31T09:46:20.205Z,1003.84
2018-05-31T09:47:20.182Z,1003.85
2018-05-31T09:48:20.201Z,1003.85
2018-05-31T09:49:20.228Z,1003.85
2018-05-31T09:50:20.112Z,1003.79
2018-05-31T09:51:20.246Z,1003.81
2018-05-31T09:52:20.184Z,1003.82
2018-05-31T09:53:20.146Z,1003.84
2018-05-31T09:54:20.187Z,1003.80
2018-05-31T09:55:20.205Z,1003.83
2018-05-31T09:56:20.239Z,1003.79
2018-05-31T09:57:20.210Z,1003.84
2018-05-31T09:58:20.292Z,1003.83
2018-05-31T09:59:20.250Z,1003.81
2018-05-31T10:00:20.151Z,1003.82
2018-05-31T10:01:20.119Z,1003.85
2018-05-31T10:02:20.110Z,1003.84
2018-05-31T10:03:20.207Z,1003.82
2018-05-31T10:04:20.173Z,1003.87
2018-05-31T10:05:20.115Z,1003.85
2018-05-31T10:06:20.251Z,1003.86
2018-05-31T10:07:20.248Z,1003.86
2018-05-31T10:08:20.140Z,1003.84
2018-05-31T10:09:20.192Z,1003.82
2018-05-31T10:10:20.191Z,1003.83
2018-05-31T10:11:20.114Z,1003.81
2018-05-31T10:12:20.172Z,1003.80
2018-05-31T10:13:20.138Z,1003.80
2018-05-31T10:14:20.220Z,1003.81
2018-05-31T10:15:20.192Z,1003.78
2018-05-31T10:16:20.222Z,1003.80
2018-05-31T10:17:20.192Z,1003.79
2018-05-31T10:18:20.245Z,1003.78
2018-05-31T10:19:20.183Z,1003.77
2018-05-31T10:20:20.263Z,1003.77
2018-05-31T10:21:20.241Z,1003.75
2018-05-31T10:22:20.079Z,1003.75
2018-05-31T10:23:20.088Z,1003.73
2018-05-31T10:24:20.081Z,1003.73
2018-05-31T10:25:20.132Z,1003.69
2018-05-31T10:26:20.172Z,1003.70
2018-05-31T10:27:20.133Z,1003.72
2018-05-31T10:28:20.174Z,1003.69
2018-05-31T10:29:20.175Z,1003.69
2018-05-31T10:30:20.176Z,1003.70
2018-05-31T10:31:20.086Z,1003.68
2018-05-31T10:32:20.234Z,1003.68
2018-05-31T10:33:20.169Z,1003.65
2018-05-31T10:34:20.235Z,1003.68
2018-05-31T10:35:20.271Z,1003.66
2018-05-31T10:36:20.235Z,1003.68
2018-05-31T10:37:20.168Z,1003.68
2018-05-31T10:38:20.166Z,1003.66
2018-05-31T10:39:20.238Z,1003.67
2018-05-31T10:40:20.170Z,1003.66
2018-05-31T10:41:20.168Z,1003.66
2018-05-31T10:42:20.238Z,1003.69
2018-05-31T10:43:20.265Z,1003.67
2018-05-31T10:44:20.244Z,1003.62
2018-05-31T10:45:20.240Z,1003.66
2018-05-31T10:46:20.303Z,1003.64
2018-05-31T10:47:20.269Z,1003.69
2018-05-31T10:48:20.219Z,1003.65
2018-05-31T10:49:20.150Z,1003.64
2018-05-31T10:50:20.268Z,1003.58
2018-05-31T10:51:20.212Z,1003.63
2018-05-31T10:52:20.205Z,1003.61
2018-05-31T10:53:20.224Z,1003.62
2018-05-31T10:54:20.246Z,1003.59
2018-05-31T10:55:20.248Z,1003.59
2018-05-31T10:56:20.219Z,1003.63
2018-05-31T10:57:20.214Z,1003.57
2018-05-31T10:58:20.171Z,1003.51
2018-05-31T10:59:20.349Z,1003.52
2018-05-31T11:00:20.272Z,1003.54
2018-05-31T11:01:20.221Z,1003.53
2018-05-31T11:02:20.184Z,1003.52
2018-05-31T11:03:20.255Z,1003.54
2018-05-31T11:04:20.187Z,1003.47
2018-05-31T11:05:20.258Z,1003.52
2018-05-31T11:06:20.242Z,1003.53
2018-05-31T11:07:20.259Z,1003.52
2018-05-31T11:08:20.191Z,1003.53
2018-05-31T11:09:20.192Z,1003.52
2018-05-31T11:10:20.261Z,1003.49
2018-05-31T11:11:20.260Z,1003.47
2018-05-31T11:12:20.155Z,1003.45
2018-05-31T11:13:20.276Z,1003.44
2018-05-31T11:14:20.223Z,1003.47
2018-05-31T11:15:20.285Z,1003.42
2018-05-31T11:16:20.225Z,1003.47
2018-05-31T11:17:20.164Z,1003.41
2018-05-31T11:18:20.260Z,1003.36
2018-05-31T11:19:20.223Z,1003.35
2018-05-31T11:20:20.220Z,1003.34
2018-05-31T11:21:20.260Z,1003.32
2018-05-31T11:22:20.199Z,1003.28
2018-05-31T11:23:20.264Z,1003.28
2018-05-31T11:24:20.267Z,1003.27
2018-05-31T11:25:20.271Z,1003.22
2018-05-31T11:26:20.304Z,1003.22
2018-05-31T11:27:20.200Z,1003.15
2018-05-31T11:28:20.280Z,1003.18
2018-05-31T11:29:20.305Z,1003.20
2018-05-31T11:30:20.204Z,1003.20
2018-05-31T11:31:20.274Z,1003.19
2018-05-31T11:32:20.215Z,1003.18
2018-05-31T11:33:20.239Z,1003.19
2018-05-31T11:34:20.253Z,1003.18
2018-05-31T11:35:20.182Z,1003.17
2018-05-31T11:36:20.250Z,1003.20
2018-05-31T11:37:20.295Z,1003.18
2018-05-31T11:38:20.237Z,1003.17
2018-05-31T11:39:20.313Z,1003.13
2018-05-31T11:40:20.248Z,1003.11
2018-05-31T11:41:20.278Z,1003.11
2018-05-31T11:42:20.223Z,1003.14
2018-05-31T11:43:20.225Z,1003.12
2018-05-31T11:44:20.134Z,1003.13
2018-05-31T11:45:20.136Z,1003.12
2018-05-31T11:46:20.228Z,1003.08
2018-05-31T11:47:20.228Z,1003.07
2018-05-31T11:48:20.136Z,1003.10
2018-05-31T11:49:20.141Z,1003.07
2018-05-31T11:50:20.180Z,1003.05
2018-05-31T11:51:20.143Z,1003.04
2018-05-31T11:52:20.172Z,1003.06
2018-05-31T11:53:20.280Z,1003.02
2018-05-31T11:54:20.163Z,1002.97
2018-05-31T11:55:20.187Z,1002.99
2018-05-31T11:56:20.308Z,1002.96
2018-05-31T11:57:20.196Z,1002.95
2018-05-31T11:58:20.195Z,1002.94
2018-05-31T11:59:20.231Z,1002.95
2018-05-31T12:00:20.273Z,1002.96
2018-05-31T12:01:20.296Z,1002.94
2018-05-31T12:02:20.292Z,1002.89
2018-05-31T12:03:20.292Z,1002.89
2018-05-31T12:04:20.293Z,1002.87
2018-05-31T12:05:20.226Z,1002.83